createdAt,value
2023-04-29T00:01:11.616Z,18.45
2023-04-29T00:03:57.182Z,18.50
2023-04-29T00:06:42.917Z,22.73
2023-04-29T00:09:28.313Z,18.02
2023-04-29T00:12:13.690Z,24.15
2023-04-29T00:15:00.057Z,20.17
2023-04-29T00:17:46.127Z,20.63
2023-04-29T00:20:31.469Z,21.83
2023-04-29T00:23:16.831Z,22.92
2023-04-29T00:26:02.305Z,22.02
2023-04-29T00:28:47.484Z,22.25
2023-04-29T00:31:33.141Z,22.83
2023-04-29T00:34:18.403Z,21.33
2023-04-29T00:37:04.012Z,22.48
2023-04-29T00:39:49.351Z,21.92
2023-04-29T00:42:35.030Z,23.35
2023-04-29T00:45:20.110Z,21.73
2023-04-29T00:48:05.731Z,20.20
2023-04-29T00:50:51.342Z,18.38
2023-04-29T00:53:38.271Z,20.13
2023-04-29T00:56:23.361Z,19.35
2023-04-29T00:59:10.172Z,18.58
2023-04-29T01:01:55.774Z,19.52
2023-04-29T01:04:41.055Z,18.10
2023-04-29T01:07:56.155Z,18.67
2023-04-29T01:10:57.482Z,18.60
2023-04-29T01:13:50.959Z,18.05
2023-04-29T01:16:48.923Z,17.30
2023-04-29T01:19:53.285Z,16.42
2023-04-29T01:22:39.184Z,16.23
2023-04-29T01:25:24.537Z,16.02
2023-04-29T01:28:33.657Z,18.10
2023-04-29T01:31:41.588Z,14.32
2023-04-29T01:34:36.084Z,17.50
2023-04-29T01:37:43.147Z,15.75
2023-04-29T01:40:59.180Z,13.77
2023-04-29T01:43:49.856Z,13.20
2023-04-29T01:46:35.908Z,13.70
2023-04-29T01:49:25.380Z,14.70
2023-04-29T01:52:10.567Z,13.23
2023-04-29T01:54:56.480Z,16.63
2023-04-29T01:57:41.856Z,15.02
2023-04-29T02:00:27.220Z,13.98
2023-04-29T02:03:12.934Z,15.00
2023-04-29T02:05:58.617Z,15.32
2023-04-29T02:08:43.898Z,12.65
2023-04-29T02:11:29.255Z,15.23
2023-04-29T02:14:14.583Z,13.75
2023-04-29T02:17:00.551Z,12.40
2023-04-29T02:19:45.992Z,15.02
2023-04-29T02:22:31.461Z,12.57
2023-04-29T02:25:17.379Z,13.65
2023-04-29T02:28:02.455Z,11.90
2023-04-29T02:30:47.814Z,11.63
2023-04-29T02:33:33.668Z,12.00
2023-04-29T02:36:18.668Z,11.60
2023-04-29T02:39:04.459Z,14.23
2023-04-29T02:41:49.826Z,11.70
2023-04-29T02:44:35.631Z,12.45
2023-04-29T02:47:20.646Z,11.23
2023-04-29T02:50:06.690Z,14.52
2023-04-29T02:52:52.104Z,10.55
2023-04-29T02:55:37.498Z,10.70
2023-04-29T02:58:23.221Z,10.77
2023-04-29T03:01:08.314Z,9.63
2023-04-29T03:03:54.853Z,10.38
2023-04-29T03:06:40.585Z,10.15
2023-04-29T03:09:26.448Z,9.77
2023-04-29T03:12:11.883Z,9.13
2023-04-29T03:14:57.122Z,10.02
2023-04-29T03:17:42.643Z,10.10
2023-04-29T03:20:28.114Z,7.85
2023-04-29T03:23:13.440Z,12.32
2023-04-29T03:25:58.843Z,10.80
2023-04-29T03:28:44.138Z,12.20
2023-04-29T03:31:29.743Z,13.20
2023-04-29T03:34:15.296Z,8.80
2023-04-29T03:37:01.241Z,10.52
2023-04-29T03:39:46.589Z,12.68
2023-04-29T03:42:31.817Z,10.02
2023-04-29T03:45:18.694Z,11.55
2023-04-29T03:48:04.100Z,9.88
2023-04-29T03:50:49.557Z,9.45
2023-04-29T03:53:36.637Z,9.25
2023-04-29T03:56:23.021Z,11.48
2023-04-29T03:59:08.158Z,10.90
2023-04-29T04:01:54.501Z,10.70
2023-04-29T04:04:41.336Z,12.90
2023-04-29T04:07:27.178Z,9.60
2023-04-29T04:10:12.580Z,11.20
2023-04-29T04:12:58.000Z,10.60
2023-04-29T04:15:49.026Z,12.70
2023-04-29T04:18:34.485Z,10.85
2023-04-29T04:21:19.691Z,10.25
2023-04-29T04:24:05.392Z,9.75
2023-04-29T04:26:50.909Z,9.63
2023-04-29T04:29:36.167Z,9.85
2023-04-29T04:32:24.708Z,11.05
2023-04-29T04:35:09.964Z,10.98
2023-04-29T04:37:55.307Z,11.57
2023-04-29T04:40:44.073Z,15.45
2023-04-29T04:43:29.221Z,12.55
2023-04-29T04:46:16.004Z,11.32
2023-04-29T04:49:01.645Z,12.80
2023-04-29T04:51:47.337Z,11.35
2023-04-29T04:54:33.137Z,12.70
2023-04-29T04:57:18.306Z,10.73
2023-04-29T05:00:05.203Z,10.88
2023-04-29T05:02:51.261Z,13.30
2023-04-29T05:05:36.660Z,10.32
2023-04-29T05:08:22.128Z,12.43
2023-04-29T05:11:15.317Z,13.27
2023-04-29T05:14:00.790Z,28.27
2023-04-29T05:16:46.675Z,16.73
2023-04-29T05:19:31.997Z,13.55
2023-04-29T05:22:17.359Z,12.20
2023-04-29T05:25:02.877Z,13.68
2023-04-29T05:27:48.066Z,13.70
2023-04-29T05:30:33.396Z,10.95
2023-04-29T05:33:18.774Z,12.85
2023-04-29T05:36:04.323Z,11.27
2023-04-29T05:38:49.724Z,12.63
2023-04-29T05:41:35.397Z,11.02
2023-04-29T05:44:20.716Z,10.48
2023-04-29T05:47:06.247Z,12.05
2023-04-29T05:49:51.645Z,11.93
2023-04-29T05:52:37.987Z,14.07
2023-04-29T05:55:23.559Z,11.90
2023-04-29T05:58:08.590Z,11.43
2023-04-29T06:00:53.876Z,12.95
2023-04-29T06:03:39.258Z,10.85
2023-04-29T06:06:24.688Z,11.30
2023-04-29T06:09:19.815Z,13.27
2023-04-29T06:12:12.280Z,10.65
2023-04-29T06:14:57.885Z,14.88
2023-04-29T06:17:43.766Z,12.23
2023-04-29T06:20:29.201Z,12.48
2023-04-29T06:23:14.284Z,12.52
2023-04-29T06:25:59.758Z,12.55
2023-04-29T06:28:45.294Z,12.30
2023-04-29T06:31:30.727Z,12.57
2023-04-29T06:34:16.135Z,12.40
2023-04-29T06:37:01.525Z,12.57
2023-04-29T06:39:47.082Z,12.48
2023-04-29T06:42:32.566Z,14.52
2023-04-29T06:45:18.218Z,12.23
2023-04-29T06:48:04.027Z,17.13
2023-04-29T06:50:53.495Z,13.43
2023-04-29T06:53:39.032Z,14.98
2023-04-29T06:56:24.845Z,12.45
2023-04-29T06:59:12.845Z,13.32
2023-04-29T07:01:58.216Z,13.23
2023-04-29T07:04:43.940Z,11.75
2023-04-29T07:07:29.236Z,13.13
2023-04-29T07:10:14.866Z,13.60
2023-04-29T07:13:00.466Z,15.25
2023-04-29T07:15:45.568Z,12.35
2023-04-29T07:18:31.116Z,15.43
2023-04-29T07:21:16.564Z,13.40
2023-04-29T07:24:04.865Z,12.50
2023-04-29T07:26:50.212Z,13.25
2023-04-29T07:29:35.497Z,11.07
2023-04-29T07:32:20.981Z,11.30
2023-04-29T07:35:07.103Z,11.27
2023-04-29T07:37:52.288Z,12.88
2023-04-29T07:40:37.685Z,14.38
2023-04-29T07:43:23.493Z,10.77
2023-04-29T07:46:09.074Z,9.68
2023-04-29T07:48:55.779Z,9.35
2023-04-29T07:51:42.474Z,10.15
2023-04-29T07:54:28.034Z,10.45
2023-04-29T07:57:13.335Z,9.63
2023-04-29T07:59:58.788Z,10.40
2023-04-29T08:02:44.737Z,10.45
2023-04-29T08:05:30.684Z,9.80
2023-04-29T08:08:16.621Z,13.55
2023-04-29T08:11:02.083Z,9.20
2023-04-29T08:13:47.964Z,7.60
2023-04-29T08:16:33.470Z,8.45
2023-04-29T08:19:18.813Z,10.70
2023-04-29T08:22:04.333Z,8.73
2023-04-29T08:24:49.714Z,9.07
2023-04-29T08:27:35.785Z,8.07
2023-04-29T08:30:21.601Z,9.57
2023-04-29T08:33:07.100Z,7.97
2023-04-29T08:35:59.250Z,6.63
2023-04-29T08:38:44.617Z,8.13
2023-04-29T08:41:32.930Z,8.43
2023-04-29T08:44:18.629Z,10.40
2023-04-29T08:47:04.711Z,7.32
2023-04-29T08:49:49.784Z,8.60
2023-04-29T08:52:36.012Z,7.82
2023-04-29T08:55:21.135Z,7.85
2023-04-29T08:58:07.926Z,7.30
2023-04-29T09:00:53.937Z,7.00
2023-04-29T09:04:02.007Z,9.15
2023-04-29T09:06:48.424Z,5.78
2023-04-29T09:09:34.868Z,5.35
2023-04-29T09:12:20.369Z,6.75
2023-04-29T09:15:06.279Z,5.70
2023-04-29T09:17:51.856Z,6.85
2023-04-29T09:20:37.178Z,5.40
2023-04-29T09:23:37.119Z,5.03
2023-04-29T09:26:24.113Z,5.47
2023-04-29T09:29:14.430Z,5.63
2023-04-29T09:31:59.726Z,5.82
2023-04-29T09:34:44.843Z,5.93
2023-04-29T09:37:30.836Z,4.68
2023-04-29T09:40:38.283Z,4.47
2023-04-29T09:43:28.819Z,6.25
2023-04-29T09:46:14.519Z,7.38
2023-04-29T09:49:00.944Z,13.15
2023-04-29T09:51:54.505Z,10.98
2023-04-29T09:54:41.176Z,10.25
2023-04-29T09:57:42.085Z,7.22
2023-04-29T10:00:33.656Z,6.47
2023-04-29T10:03:22.168Z,6.65
2023-04-29T10:06:08.222Z,5.50
2023-04-29T10:08:53.438Z,5.45
2023-04-29T10:11:40.714Z,11.65
2023-04-29T10:14:27.060Z,12.57
2023-04-29T10:17:18.368Z,16.52
2023-04-29T10:20:09.381Z,22.90
2023-04-29T10:22:56.990Z,8.80
2023-04-29T10:25:44.129Z,11.75
2023-04-29T10:28:32.723Z,8.05
2023-04-29T10:31:19.757Z,8.85
2023-04-29T10:34:05.037Z,5.93
2023-04-29T10:36:51.078Z,5.32
2023-04-29T10:39:47.829Z,5.72
2023-04-29T10:42:42.348Z,7.78
2023-04-29T10:45:29.358Z,6.25
2023-04-29T10:48:15.730Z,5.20
2023-04-29T10:51:02.333Z,6.95
2023-04-29T10:54:03.536Z,7.07
2023-04-29T10:56:50.298Z,5.05
2023-04-29T10:59:36.521Z,5.25
2023-04-29T11:02:22.124Z,5.43
2023-04-29T11:05:12.601Z,4.10
2023-04-29T11:08:43.404Z,3.35
2023-04-29T11:11:44.029Z,3.25
2023-04-29T11:14:41.563Z,3.40
2023-04-29T11:17:28.313Z,3.83
2023-04-29T11:20:14.488Z,3.83
2023-04-29T11:23:01.831Z,4.93
2023-04-29T11:25:46.880Z,3.80
2023-04-29T11:28:33.274Z,4.63
2023-04-29T11:31:18.472Z,6.07
2023-04-29T11:34:05.279Z,4.20
2023-04-29T11:36:51.257Z,3.55
2023-04-29T11:39:36.651Z,4.82
2023-04-29T11:42:22.660Z,6.40
2023-04-29T11:45:08.276Z,6.07
2023-04-29T11:47:55.669Z,5.32
2023-04-29T11:50:42.598Z,3.70
2023-04-29T11:53:30.383Z,5.07
2023-04-29T11:56:15.729Z,5.50
2023-04-29T11:59:01.905Z,4.53
2023-04-29T12:01:47.195Z,4.75
2023-04-29T12:04:32.782Z,6.20
2023-04-29T12:07:18.587Z,4.75
2023-04-29T12:10:07.749Z,5.93
2023-04-29T12:12:53.038Z,4.55
2023-04-29T12:15:40.219Z,5.03
2023-04-29T12:18:27.638Z,3.55
2023-04-29T12:21:13.407Z,2.40
2023-04-29T12:24:01.072Z,3.28
2023-04-29T12:26:46.809Z,3.15
2023-04-29T12:29:33.291Z,2.97
2023-04-29T12:32:24.908Z,2.50
2023-04-29T12:35:17.401Z,10.57
2023-04-29T12:38:06.517Z,3.38
2023-04-29T12:40:58.627Z,2.70
2023-04-29T12:43:44.998Z,4.85
2023-04-29T12:46:37.685Z,3.25
2023-04-29T12:49:28.389Z,2.80
2023-04-29T12:52:16.936Z,4.32
2023-04-29T12:55:03.409Z,3.90
2023-04-29T12:57:52.216Z,4.10
2023-04-29T13:00:41.208Z,3.30
2023-04-29T13:03:27.484Z,2.72
2023-04-29T13:06:13.859Z,2.72
2023-04-29T13:09:00.558Z,3.72
2023-04-29T13:11:50.062Z,3.15
2023-04-29T13:14:35.928Z,3.10
2023-04-29T13:17:24.237Z,1.77
2023-04-29T13:20:17.131Z,2.13
2023-04-29T13:23:08.523Z,2.28
2023-04-29T13:25:58.819Z,2.72
2023-04-29T13:28:45.122Z,1.40
2023-04-29T13:31:37.871Z,1.85
2023-04-29T13:34:27.171Z,1.38
2023-04-29T13:37:16.003Z,1.58
2023-04-29T13:40:20.606Z,3.22
2023-04-29T13:43:15.374Z,3.97
2023-04-29T13:46:15.228Z,1.83
2023-04-29T13:49:31.267Z,1.95
2023-04-29T13:53:07.295Z,1.25
2023-04-29T13:58:55.395Z,1.02
2023-04-29T14:04:11.080Z,4.10
2023-04-29T14:07:03.746Z,2.03
2023-04-29T14:12:49.823Z,1.58
2023-04-29T14:15:36.217Z,1.95
2023-04-29T14:18:25.346Z,1.60
2023-04-29T14:21:14.823Z,2.10
2023-04-29T14:24:04.844Z,1.17
2023-04-29T14:26:53.859Z,1.77
2023-04-29T14:29:42.521Z,4.53
2023-04-29T14:32:35.395Z,4.47
2023-04-29T14:35:26.799Z,3.47
2023-04-29T14:38:20.564Z,2.75
2023-04-29T14:41:09.260Z,3.38
2023-04-29T14:43:54.711Z,3.55
2023-04-29T14:46:40.285Z,3.42
2023-04-29T14:49:26.123Z,2.58
2023-04-29T14:52:11.367Z,3.85
2023-04-29T14:54:56.928Z,3.42
2023-04-29T14:57:42.248Z,4.85
2023-04-29T15:00:27.709Z,2.90
2023-04-29T15:03:21.519Z,3.60
2023-04-29T15:06:08.127Z,3.15
2023-04-29T15:08:53.640Z,3.03
2023-04-29T15:11:38.982Z,2.67
2023-04-29T15:14:24.445Z,2.22
2023-04-29T15:17:10.317Z,2.28
2023-04-29T15:19:55.605Z,2.25
2023-04-29T15:22:41.108Z,2.25
2023-04-29T15:25:27.492Z,2.70
2023-04-29T15:28:12.990Z,3.10
2023-04-29T15:31:01.542Z,9.38
2023-04-29T15:33:48.316Z,5.95
2023-04-29T15:36:34.356Z,4.85
2023-04-29T15:39:19.930Z,11.15
2023-04-29T15:42:05.474Z,6.65
2023-04-29T15:44:51.090Z,3.80
2023-04-29T15:47:37.209Z,3.67
2023-04-29T15:50:22.788Z,3.47
2023-04-29T15:53:08.319Z,3.33
2023-04-29T15:55:54.656Z,4.18
2023-04-29T15:58:40.392Z,4.93
2023-04-29T16:01:28.198Z,4.03
2023-04-29T16:04:13.941Z,3.60
2023-04-29T16:06:59.316Z,4.25
2023-04-29T16:09:44.729Z,6.53
2023-04-29T16:12:30.536Z,4.30
2023-04-29T16:15:16.058Z,4.60
2023-04-29T16:18:01.766Z,6.72
2023-04-29T16:20:47.386Z,4.25
2023-04-29T16:23:33.204Z,5.65
2023-04-29T16:26:19.119Z,4.32
2023-04-29T16:29:05.206Z,4.70
2023-04-29T16:31:50.854Z,4.38
2023-04-29T16:34:37.343Z,4.25
2023-04-29T16:37:22.904Z,3.78
2023-04-29T16:40:09.022Z,4.35
2023-04-29T16:42:54.570Z,5.60
2023-04-29T16:45:40.133Z,6.18
2023-04-29T16:48:25.630Z,7.63
2023-04-29T16:51:11.155Z,7.53
2023-04-29T16:53:56.667Z,6.60
2023-04-29T16:56:42.121Z,7.78
2023-04-29T16:59:27.661Z,12.50
2023-04-29T17:02:13.419Z,6.40
2023-04-29T17:04:58.908Z,7.03
2023-04-29T17:07:44.243Z,7.97
2023-04-29T17:10:29.614Z,7.97
2023-04-29T17:13:15.397Z,11.68
2023-04-29T17:16:00.636Z,9.55
2023-04-29T17:18:46.357Z,10.48
2023-04-29T17:21:32.313Z,9.32
2023-04-29T17:24:18.146Z,9.13
2023-04-29T17:27:03.656Z,10.57
2023-04-29T17:29:49.337Z,10.98
2023-04-29T17:32:39.022Z,10.50
2023-04-29T17:35:24.678Z,9.25
2023-04-29T17:38:11.889Z,11.38
2023-04-29T17:40:57.184Z,11.27
2023-04-29T17:43:42.597Z,11.57
2023-04-29T17:46:27.945Z,10.35
2023-04-29T17:49:13.357Z,10.45
2023-04-29T17:52:00.267Z,11.68
2023-04-29T17:54:45.730Z,10.50
2023-04-29T17:57:31.069Z,11.68
2023-04-29T18:00:16.748Z,11.32
2023-04-29T18:03:02.955Z,10.77
2023-04-29T18:05:48.472Z,9.10
2023-04-29T18:08:33.849Z,11.07
2023-04-29T18:11:19.302Z,11.70
2023-04-29T18:14:04.822Z,10.00
2023-04-29T18:16:50.031Z,10.45
2023-04-29T18:19:35.328Z,11.10
2023-04-29T18:22:20.719Z,11.65
2023-04-29T18:25:06.637Z,11.13
2023-04-29T18:27:56.984Z,14.43
2023-04-29T18:30:47.616Z,13.80
2023-04-29T18:33:33.563Z,14.95
2023-04-29T18:36:21.245Z,13.82
2023-04-29T18:39:07.087Z,12.27
2023-04-29T18:41:52.563Z,12.98
2023-04-29T18:44:38.884Z,14.93
2023-04-29T18:47:24.551Z,12.48
2023-04-29T18:50:09.688Z,13.32
2023-04-29T18:52:55.138Z,10.35
2023-04-29T18:55:41.089Z,11.48
2023-04-29T18:58:27.323Z,11.63
2023-04-29T19:01:12.692Z,11.82
2023-04-29T19:03:58.910Z,10.00
2023-04-29T19:06:45.012Z,11.05
2023-04-29T19:09:32.073Z,11.98
2023-04-29T19:12:17.914Z,11.93
2023-04-29T19:15:03.113Z,13.27
2023-04-29T19:17:48.720Z,10.85
2023-04-29T19:20:34.646Z,11.50
2023-04-29T19:23:19.669Z,10.25
2023-04-29T19:26:05.292Z,12.25
2023-04-29T19:28:51.294Z,11.75
2023-04-29T19:31:37.937Z,13.48
2023-04-29T19:34:23.727Z,12.40
2023-04-29T19:37:09.041Z,13.63
2023-04-29T19:39:54.865Z,13.23
2023-04-29T19:42:40.671Z,12.50
2023-04-29T19:45:26.443Z,13.50
2023-04-29T19:48:12.100Z,11.90
2023-04-29T19:50:59.584Z,10.18
2023-04-29T19:53:44.916Z,12.27
2023-04-29T19:56:30.508Z,10.02
2023-04-29T19:59:15.910Z,11.57
2023-04-29T20:02:01.546Z,11.15
2023-04-29T20:04:48.027Z,12.10
2023-04-29T20:07:33.208Z,12.63
2023-04-29T20:10:18.598Z,12.38
2023-04-29T20:13:04.057Z,11.02
2023-04-29T20:15:49.886Z,9.77
2023-04-29T20:18:36.060Z,10.93
2023-04-29T20:21:21.459Z,13.27
2023-04-29T20:24:07.173Z,10.65
2023-04-29T20:26:52.412Z,11.38
2023-04-29T20:29:38.007Z,10.85
2023-04-29T20:32:23.420Z,13.00
2023-04-29T20:35:09.221Z,11.88
2023-04-29T20:37:54.700Z,10.70
2023-04-29T20:40:40.311Z,11.32
2023-04-29T20:43:25.438Z,12.35
2023-04-29T20:46:12.382Z,11.73
2023-04-29T20:48:57.675Z,10.43
2023-04-29T20:51:43.227Z,13.77
2023-04-29T20:54:28.612Z,11.02
2023-04-29T20:57:13.845Z,9.98
2023-04-29T20:59:59.149Z,10.98
2023-04-29T21:02:44.678Z,12.38
2023-04-29T21:05:30.182Z,12.48
2023-04-29T21:08:15.630Z,11.75
2023-04-29T21:11:01.547Z,12.40
2023-04-29T21:13:50.137Z,15.30
2023-04-29T21:16:35.254Z,12.27
2023-04-29T21:19:20.827Z,12.75
2023-04-29T21:22:06.409Z,12.57
2023-04-29T21:24:51.718Z,14.38
2023-04-29T21:27:37.156Z,12.85
2023-04-29T21:30:22.528Z,11.80
2023-04-29T21:33:07.942Z,12.00
2023-04-29T21:35:53.332Z,12.27
2023-04-29T21:38:38.813Z,13.18
2023-04-29T21:41:29.420Z,12.13
2023-04-29T21:44:14.983Z,15.10
2023-04-29T21:47:00.834Z,15.85
2023-04-29T21:49:46.442Z,13.20
2023-04-29T21:52:35.050Z,10.80
2023-04-29T21:55:20.384Z,17.77
2023-04-29T21:58:05.959Z,12.57
2023-04-29T22:00:58.456Z,17.38
2023-04-29T22:03:43.877Z,12.98
2023-04-29T22:06:29.569Z,12.90
2023-04-29T22:09:16.135Z,13.07
2023-04-29T22:12:02.972Z,12.40
2023-04-29T22:14:48.762Z,14.35
2023-04-29T22:17:33.873Z,14.13
2023-04-29T22:20:19.486Z,16.02
2023-04-29T22:23:05.127Z,16.92
2023-04-29T22:25:50.582Z,12.38
2023-04-29T22:28:36.036Z,12.93
2023-04-29T22:31:21.518Z,14.48
2023-04-29T22:34:06.947Z,13.38
2023-04-29T22:36:52.429Z,14.45
2023-04-29T22:39:38.183Z,16.40
2023-04-29T22:42:23.493Z,15.68
2023-04-29T22:45:10.929Z,16.83
2023-04-29T22:47:56.324Z,16.42
2023-04-29T22:50:41.847Z,13.68
2023-04-29T22:53:27.374Z,13.82
2023-04-29T22:56:12.933Z,12.80
2023-04-29T22:58:58.308Z,13.27
2023-04-29T23:01:43.766Z,13.85
2023-04-29T23:04:30.879Z,15.10
2023-04-29T23:07:16.351Z,15.13
2023-04-29T23:10:01.684Z,16.38
2023-04-29T23:12:46.994Z,15.70
2023-04-29T23:15:32.688Z,14.27
2023-04-29T23:18:18.020Z,14.38
2023-04-29T23:21:03.608Z,15.13
2023-04-29T23:23:48.961Z,14.30
2023-04-29T23:26:34.372Z,13.63
2023-04-29T23:29:19.848Z,14.48
2023-04-29T23:32:05.308Z,14.32
2023-04-29T23:34:50.841Z,14.38
2023-04-29T23:37:36.368Z,16.90
2023-04-29T23:40:21.490Z,13.73
2023-04-29T23:43:07.016Z,16.42
2023-04-29T23:45:52.885Z,15.20
2023-04-29T23:48:38.473Z,13.75
2023-04-29T23:51:24.123Z,16.30
2023-04-29T23:54:09.600Z,17.45
2023-04-29T23:56:54.878Z,15.95
2023-04-29T23:59:42.395Z,16.35
